createdAt,value
2023-04-03T00:02:42.080Z,1.81
2023-04-03T00:06:44.382Z,1.59
2023-04-03T00:10:46.727Z,1.54
2023-04-03T00:14:48.834Z,1.51
2023-04-03T00:18:50.950Z,1.37
2023-04-03T00:22:57.235Z,1.32
2023-04-03T00:26:59.251Z,1.28
2023-04-03T00:31:07.484Z,1.31
2023-04-03T00:35:10.728Z,1.14
2023-04-03T00:39:13.463Z,1.05
2023-04-03T00:43:24.535Z,1.02
2023-04-03T00:47:27.168Z,0.92
2023-04-03T00:51:29.438Z,0.91
2023-04-03T00:55:32.697Z,0.85
2023-04-03T00:59:39.673Z,0.85
2023-04-03T01:03:41.809Z,0.75
2023-04-03T01:07:45.591Z,0.71
2023-04-03T01:11:48.331Z,0.66
2023-04-03T01:15:50.885Z,0.67
2023-04-03T01:20:17.014Z,0.54
2023-04-03T01:24:39.531Z,0.61
2023-04-03T01:28:44.163Z,0.58
2023-04-03T01:32:46.315Z,0.46
2023-04-03T01:36:49.105Z,0.45
2023-04-03T01:40:51.603Z,0.45
2023-04-03T01:44:53.841Z,0.37
2023-04-03T01:48:56.098Z,0.29
2023-04-03T01:52:58.585Z,0.24
2023-04-03T01:57:00.958Z,0.18
2023-04-03T02:01:04.075Z,0.21
2023-04-03T02:05:07.328Z,0.07
2023-04-03T02:09:09.598Z,0.02
2023-04-03T02:13:12.141Z,-0.01
2023-04-03T02:17:14.504Z,0.02
2023-04-03T02:21:16.600Z,-0.07
2023-04-03T02:25:19.357Z,-0.11
2023-04-03T02:29:21.840Z,-0.11
2023-04-03T02:33:24.020Z,-0.24
2023-04-03T02:37:26.612Z,-0.25
2023-04-03T02:41:35.864Z,-0.28
2023-04-03T02:45:40.822Z,-0.22
2023-04-03T02:49:46.068Z,-0.28
2023-04-03T02:53:48.185Z,-0.35
2023-04-03T02:57:55.049Z,-0.31
2023-04-03T03:01:57.728Z,-0.40
2023-04-03T03:06:04.971Z,-0.49
2023-04-03T03:10:07.368Z,-0.55
2023-04-03T03:14:10.679Z,-0.57
2023-04-03T03:18:12.817Z,-0.57
2023-04-03T03:22:15.226Z,-0.57
2023-04-03T03:26:17.425Z,-0.59
2023-04-03T03:30:19.555Z,-0.68
2023-04-03T03:34:22.035Z,-0.74
2023-04-03T03:38:24.451Z,-0.73
2023-04-03T03:42:27.193Z,-0.75
2023-04-03T03:46:29.646Z,-0.86
2023-04-03T03:50:31.828Z,-0.93
2023-04-03T03:54:34.203Z,-1.01
2023-04-03T03:58:37.103Z,-0.84
2023-04-03T04:02:39.890Z,-0.96
2023-04-03T04:06:42.308Z,-1.05
2023-04-03T04:10:46.323Z,-0.99
2023-04-03T04:14:50.744Z,-1.06
2023-04-03T04:18:53.100Z,-1.05
2023-04-03T04:22:56.263Z,-1.02
2023-04-03T04:26:59.339Z,-1.09
2023-04-03T04:31:01.742Z,-1.02
2023-04-03T04:35:06.030Z,-0.96
2023-04-03T04:39:10.800Z,-1.02
2023-04-03T04:43:15.567Z,-1.01
2023-04-03T04:47:19.697Z,-1.04
2023-04-03T04:51:22.057Z,-1.00
2023-04-03T04:55:24.325Z,-1.04
2023-04-03T04:59:26.664Z,-0.96
2023-04-03T05:03:31.582Z,-1.05
2023-04-03T05:07:34.512Z,-0.93
2023-04-03T05:11:37.681Z,-0.87
2023-04-03T05:15:42.137Z,-0.75
2023-04-03T05:19:44.460Z,-0.57
2023-04-03T05:23:47.916Z,-0.48
2023-04-03T05:27:51.010Z,-0.45
2023-04-03T05:31:53.534Z,-0.32
2023-04-03T05:35:55.995Z,-0.29
2023-04-03T05:40:04.119Z,-0.12
2023-04-03T05:44:06.898Z,-0.11
2023-04-03T05:48:09.450Z,0.08
2023-04-03T05:52:23.728Z,0.03
2023-04-03T05:56:27.362Z,0.10
2023-04-03T06:00:29.900Z,0.03
2023-04-03T06:04:37.523Z,0.07
2023-04-03T06:08:40.441Z,0.02
2023-04-03T06:12:42.856Z,0.09
2023-04-03T06:16:45.885Z,0.28
2023-04-03T06:20:48.270Z,0.29
2023-04-03T06:24:50.352Z,0.34
2023-04-03T06:28:55.344Z,0.42
2023-04-03T06:32:57.726Z,0.61
2023-04-03T06:43:34.578Z,0.75
2023-04-03T06:47:37.066Z,0.88
2023-04-03T06:51:39.446Z,0.79
2023-04-03T06:55:42.515Z,0.71
2023-04-03T06:59:44.664Z,0.93
2023-04-03T07:03:47.505Z,1.00
2023-04-03T07:07:50.854Z,1.03
2023-04-03T07:11:52.907Z,0.95
2023-04-03T07:15:55.455Z,1.12
2023-04-03T07:19:57.711Z,1.37
2023-04-03T07:23:59.885Z,1.19
2023-04-03T07:28:02.025Z,1.11
2023-04-03T07:32:04.651Z,1.50
2023-04-03T07:36:10.529Z,1.72
2023-04-03T07:40:12.910Z,1.68
2023-04-03T07:44:14.944Z,1.91
2023-04-03T07:48:18.679Z,2.25
2023-04-03T07:52:20.730Z,2.18
2023-04-03T07:56:23.818Z,2.29
2023-04-03T08:00:26.019Z,2.56
2023-04-03T08:04:28.294Z,2.49
2023-04-03T08:08:31.387Z,2.09
2023-04-03T08:12:33.712Z,2.40
2023-04-03T08:16:35.808Z,2.29
2023-04-03T08:20:39.722Z,2.29
2023-04-03T08:24:52.382Z,2.95
2023-04-03T08:29:00.485Z,2.98
2023-04-03T08:33:03.432Z,2.60
2023-04-03T08:37:06.321Z,2.75
2023-04-03T08:41:24.366Z,2.63
2023-04-03T08:45:44.581Z,2.90
2023-04-03T08:49:52.641Z,2.94
2023-04-03T08:54:01.799Z,3.17
2023-04-03T08:58:30.485Z,3.20
2023-04-03T09:02:42.737Z,3.62
2023-04-03T09:06:50.882Z,3.26
2023-04-03T09:11:22.997Z,3.59
2023-04-03T09:15:37.788Z,3.65
2023-04-03T09:20:09.861Z,3.67
2023-04-03T09:24:14.691Z,3.34
2023-04-03T09:28:16.780Z,3.36
2023-04-03T09:32:33.634Z,3.65
2023-04-03T09:36:39.764Z,3.46
2023-04-03T09:40:41.718Z,3.36
2023-04-03T09:44:53.726Z,3.12
2023-04-03T09:49:08.898Z,3.57
2023-04-03T09:53:28.987Z,3.40
2023-04-03T09:57:34.221Z,2.94
2023-04-03T10:01:39.223Z,3.61
2023-04-03T10:05:43.262Z,4.34
2023-04-03T10:09:56.582Z,4.03
2023-04-03T10:14:06.240Z,4.18
2023-04-03T10:18:35.112Z,3.88
2023-04-03T10:22:46.663Z,4.19
2023-04-03T10:27:11.746Z,4.76
2023-04-03T10:31:28.663Z,5.24
2023-04-03T10:35:54.409Z,4.81
2023-04-03T10:40:06.086Z,4.87
2023-04-03T10:44:28.069Z,5.20
2023-04-03T10:48:50.138Z,4.85
2023-04-03T10:53:13.852Z,4.26
2023-04-03T10:57:16.034Z,4.51
2023-04-03T11:01:23.543Z,3.90
2023-04-03T11:05:37.943Z,3.76
2023-04-03T11:09:44.776Z,4.24
2023-04-03T11:13:55.931Z,4.66
2023-04-03T11:18:46.064Z,5.14
2023-04-03T11:23:04.129Z,5.01
2023-04-03T11:27:09.454Z,4.23
2023-04-03T11:31:31.066Z,4.34
2023-04-03T11:35:34.969Z,4.07
2023-04-03T11:39:39.584Z,4.52
2023-04-03T11:43:56.410Z,4.74
2023-04-03T11:48:09.949Z,4.16
2023-04-03T11:52:56.668Z,4.61
2023-04-03T11:56:58.691Z,4.99
2023-04-03T12:01:07.020Z,4.63
2023-04-03T12:05:32.782Z,5.24
2023-04-03T12:09:34.976Z,5.32
2023-04-03T12:14:05.985Z,5.74
2023-04-03T12:18:53.071Z,5.66
2023-04-03T12:23:09.667Z,5.13
2023-04-03T12:27:24.347Z,5.02
2023-04-03T12:31:42.110Z,4.55
2023-04-03T12:35:58.497Z,4.65
2023-04-03T12:40:20.540Z,4.65
2023-04-03T12:44:41.625Z,4.71
2023-04-03T12:48:46.583Z,4.62
2023-04-03T12:52:56.295Z,4.89
2023-04-03T12:57:17.819Z,4.97
2023-04-03T13:01:24.472Z,4.76
2023-04-03T13:05:27.564Z,4.80
2023-04-03T13:09:33.534Z,5.06
2023-04-03T13:13:36.745Z,5.15
2023-04-03T13:17:43.612Z,4.96
2023-04-03T13:21:46.458Z,4.80
2023-04-03T13:25:50.559Z,4.83
2023-04-03T13:30:00.288Z,4.88
2023-04-03T13:34:17.125Z,4.94
2023-04-03T13:38:19.208Z,4.92
2023-04-03T13:42:27.836Z,5.09
2023-04-03T13:46:30.094Z,5.18
2023-04-03T13:50:32.170Z,5.02
2023-04-03T13:54:39.640Z,5.47
2023-04-03T13:58:55.856Z,5.59
2023-04-03T14:02:58.573Z,5.09
2023-04-03T14:07:00.730Z,5.07
2023-04-03T14:11:03.219Z,5.38
2023-04-03T14:15:16.702Z,5.44
2023-04-03T14:19:25.705Z,5.20
2023-04-03T14:23:27.771Z,4.94
2023-04-03T14:27:35.281Z,4.79
2023-04-03T14:31:37.411Z,4.90
2023-04-03T14:35:39.616Z,5.00
2023-04-03T14:39:43.063Z,5.11
2023-04-03T14:43:46.701Z,4.84
2023-04-03T14:47:51.512Z,4.84
2023-04-03T14:51:53.745Z,4.90
2023-04-03T14:55:56.080Z,4.79
2023-04-03T14:59:58.859Z,5.02
2023-04-03T15:04:01.126Z,4.97
2023-04-03T15:08:03.190Z,4.71
2023-04-03T15:12:05.383Z,4.64
2023-04-03T15:16:16.111Z,4.59
2023-04-03T15:20:21.882Z,4.49
2023-04-03T15:24:23.975Z,4.43
2023-04-03T15:28:34.645Z,4.45
2023-04-03T15:32:37.157Z,4.64
2023-04-03T15:36:39.278Z,4.61
2023-04-03T15:40:41.724Z,4.47
2023-04-03T15:44:43.768Z,4.48
2023-04-03T15:48:45.963Z,4.38
2023-04-03T15:52:48.177Z,4.46
2023-04-03T15:56:50.573Z,4.31
2023-04-03T16:00:52.841Z,4.22
2023-04-03T16:04:56.368Z,4.16
2023-04-03T16:08:59.072Z,4.17
2023-04-03T16:13:01.070Z,4.11
2023-04-03T16:17:03.349Z,4.11
2023-04-03T16:21:08.931Z,4.09
2023-04-03T16:25:12.312Z,4.04
2023-04-03T16:29:14.718Z,3.97
2023-04-03T16:33:17.767Z,3.90
2023-04-03T16:37:20.163Z,3.90
2023-04-03T16:41:22.670Z,3.90
2023-04-03T16:45:24.894Z,3.89
2023-04-03T16:49:31.218Z,3.84
2023-04-03T16:53:33.474Z,3.74
2023-04-03T16:57:35.602Z,3.68
2023-04-03T17:01:37.859Z,3.72
2023-04-03T17:05:40.280Z,3.63
2023-04-03T17:09:42.616Z,3.51
2023-04-03T17:13:44.933Z,3.55
2023-04-03T17:17:49.049Z,3.49
2023-04-03T17:21:52.521Z,3.49
2023-04-03T17:25:55.920Z,3.48
2023-04-03T17:29:58.656Z,3.49
2023-04-03T17:34:01.846Z,3.39
2023-04-03T17:38:04.811Z,3.41
2023-04-03T17:42:06.992Z,3.37
2023-04-03T17:46:10.814Z,3.33
2023-04-03T17:50:16.045Z,3.32
2023-04-03T17:54:18.456Z,3.30
2023-04-03T17:58:20.703Z,3.29
2023-04-03T18:02:23.195Z,3.21
2023-04-03T18:06:32.486Z,3.24
2023-04-03T18:10:37.415Z,3.27
2023-04-03T18:14:41.038Z,3.22
2023-04-03T18:18:43.619Z,3.26
2023-04-03T18:22:46.023Z,3.16
2023-04-03T18:26:53.704Z,3.12
2023-04-03T18:30:56.025Z,3.09
2023-04-03T18:35:00.557Z,3.14
2023-04-03T18:39:03.789Z,3.04
2023-04-03T18:43:06.562Z,3.11
2023-04-03T18:47:09.149Z,3.02
2023-04-03T18:51:12.370Z,2.98
2023-04-03T18:55:16.300Z,3.09
2023-04-03T18:59:18.742Z,3.03
2023-04-03T19:03:21.390Z,3.11
2023-04-03T19:07:23.793Z,3.12
2023-04-03T19:11:29.573Z,3.00
2023-04-03T19:15:35.153Z,2.84
2023-04-03T19:19:37.412Z,2.87
2023-04-03T19:23:42.756Z,2.81
2023-04-03T19:27:45.285Z,2.76
2023-04-03T19:31:47.621Z,2.65
2023-04-03T19:35:49.741Z,2.68
2023-04-03T19:39:51.802Z,2.57
2023-04-03T19:43:56.003Z,2.60
2023-04-03T19:48:01.428Z,2.54
2023-04-03T19:52:04.847Z,2.59
2023-04-03T19:56:07.432Z,2.59
2023-04-03T20:00:10.340Z,2.55
2023-04-03T20:04:16.016Z,2.50
2023-04-03T20:08:18.957Z,2.55
2023-04-03T20:12:21.174Z,2.50
2023-04-03T20:16:25.418Z,2.39
2023-04-03T20:20:28.653Z,2.43
2023-04-03T20:24:31.396Z,2.36
2023-04-03T20:28:34.125Z,2.28
2023-04-03T20:32:36.141Z,2.38
2023-04-03T20:36:38.773Z,2.37
2023-04-03T20:40:40.932Z,2.32
2023-04-03T20:44:45.946Z,2.28
2023-04-03T20:48:48.198Z,2.22
2023-04-03T20:52:50.314Z,2.13
2023-04-03T20:56:52.869Z,2.16
2023-04-03T21:00:56.648Z,2.10
2023-04-03T21:04:58.980Z,2.16
2023-04-03T21:09:39.030Z,2.09
2023-04-03T21:14:19.338Z,2.02
2023-04-03T21:18:57.301Z,1.96
2023-04-03T21:22:59.360Z,1.95
2023-04-03T21:27:03.005Z,1.87
2023-04-03T21:31:06.437Z,1.85
2023-04-03T21:35:09.507Z,1.83
2023-04-03T21:39:12.251Z,1.79
2023-04-03T21:43:14.469Z,1.71
2023-04-03T21:47:16.852Z,1.57
2023-04-03T21:51:18.880Z,1.53
2023-04-03T21:55:20.916Z,1.63
2023-04-03T21:59:23.255Z,1.51
2023-04-03T22:03:25.616Z,1.55
2023-04-03T22:07:27.799Z,1.51
2023-04-03T22:11:30.378Z,1.46
2023-04-03T22:15:36.834Z,1.45
2023-04-03T22:19:39.073Z,1.46
2023-04-03T22:23:41.262Z,1.48
2023-04-03T22:27:43.233Z,1.53
2023-04-03T22:31:45.357Z,1.46
2023-04-03T22:35:48.717Z,1.24
2023-04-03T22:39:50.958Z,1.24
2023-04-03T22:43:52.948Z,1.24
2023-04-03T22:47:58.692Z,1.16
2023-04-03T22:52:00.982Z,1.10
2023-04-03T22:56:05.684Z,1.02
2023-04-03T23:00:08.424Z,0.97
2023-04-03T23:04:10.520Z,1.12
2023-04-03T23:08:12.648Z,1.06
2023-04-03T23:12:14.479Z,1.00
2023-04-03T23:16:17.351Z,0.85
2023-04-03T23:20:19.599Z,0.77
2023-04-03T23:24:22.688Z,0.66
2023-04-03T23:28:25.428Z,0.60
2023-04-03T23:32:27.515Z,0.70
2023-04-03T23:36:29.552Z,0.59
2023-04-03T23:40:31.650Z,0.44
2023-04-03T23:44:33.377Z,0.37
2023-04-03T23:48:35.485Z,0.36
2023-04-03T23:52:37.534Z,0.22
2023-04-03T23:56:39.555Z,0.25
